createdAt,value
2023-02-03T00:17:36.697Z,508
2023-02-03T00:37:36.696Z,494
2023-02-03T00:57:36.701Z,493
2023-02-03T01:17:36.698Z,493
2023-02-03T01:37:36.698Z,491
2023-02-03T01:57:36.729Z,488
2023-02-03T02:37:36.553Z,483
2023-02-03T02:57:36.785Z,481
2023-02-03T03:17:36.779Z,479
2023-02-03T03:37:36.828Z,480
2023-02-03T03:57:36.811Z,476
2023-02-03T04:17:36.765Z,471
2023-02-03T04:37:36.828Z,477
2023-02-03T05:17:36.803Z,482
2023-02-03T05:37:36.316Z,470
2023-02-03T05:57:36.329Z,475
2023-02-03T06:17:36.325Z,471
2023-02-03T06:37:36.824Z,466
2023-02-03T06:57:36.849Z,463
2023-02-03T07:17:36.380Z,462
2023-02-03T07:37:36.654Z,472
2023-02-03T07:57:36.341Z,469
2023-02-03T08:17:36.869Z,460
2023-02-03T08:37:36.883Z,461
2023-02-03T08:57:36.906Z,459
2023-02-03T09:17:36.907Z,457
2023-02-03T09:37:36.680Z,454
2023-02-03T09:57:36.915Z,461
2023-02-03T10:17:36.915Z,455
2023-02-03T10:37:36.912Z,460
2023-02-03T10:57:36.923Z,459
2023-02-03T11:17:36.955Z,462
2023-02-03T11:37:36.676Z,457
2023-02-03T11:57:36.939Z,456
2023-02-03T12:17:36.940Z,461
2023-02-03T12:37:36.460Z,461
2023-02-03T12:57:36.983Z,450
2023-02-03T13:17:36.963Z,452
2023-02-03T13:37:36.955Z,457
2023-02-03T13:57:36.982Z,449
2023-02-03T14:17:37.017Z,456
2023-02-03T14:37:36.972Z,453
2023-02-03T14:57:36.979Z,452
2023-02-03T15:17:36.998Z,454
2023-02-03T15:57:36.502Z,450
2023-02-03T16:17:37.035Z,447
2023-02-03T16:37:37.047Z,446
2023-02-03T16:57:37.057Z,445
2023-02-03T17:17:37.022Z,447
2023-02-03T17:37:37.031Z,447
2023-02-03T17:57:37.067Z,437
2023-02-03T18:17:37.078Z,447
2023-02-03T18:37:37.029Z,439
2023-02-03T18:57:37.071Z,442
2023-02-03T19:17:37.091Z,439
2023-02-03T19:37:37.071Z,435
2023-02-03T19:57:36.903Z,441
2023-02-03T20:17:37.105Z,440
2023-02-03T20:37:37.122Z,433
2023-02-03T20:57:37.115Z,435
2023-02-03T21:17:37.133Z,439
2023-02-03T21:37:37.133Z,438
2023-02-03T21:57:37.162Z,431
2023-02-03T22:17:36.666Z,434
2023-02-03T22:37:36.936Z,435
2023-02-03T22:57:37.145Z,422
2023-02-03T23:17:36.683Z,429
2023-02-03T23:37:37.182Z,418
2023-02-03T23:57:37.182Z,428
